IAE9951 BIKF-EGLL
Flight info
| Callsign | IAE9951 |
|---|---|
| Flight time | N/A |
| Altitude | 39000 |
| Route | M083F390 DCT OSKUM DCT RATSU/N0487F390 DCT BARKU DCT ORSUM DCT GOW DCT ELBUS DCT NAVSO DCT VAMEB DCT NUGRA DCT |
| Aircraft | B772/H-SDE2E3FGHIJ5LORVWXY/LB1D1 |
Departure
| Time | N/A |
|---|---|
| Airport | Keflavik International Airport (BIKF) |
Arrival
| Time | 2026-05-06 15:17 |
|---|---|
| Airport | London Heathrow Airport (EGLL) |
| Time | Latitude | Longitude | Altitude | Speed | Heading |
|---|---|---|---|---|---|
| 2026-05-06 13:39 | 61.30518 | -10.96004 | 38988 ft | 508 kts | 123° |
| 2026-05-06 13:39 | 61.28593 | -10.89832 | 38993 ft | 507 kts | 123° |
| 2026-05-06 13:40 | 61.24136 | -10.75595 | 38989 ft | 507 kts | 123° |
| 2026-05-06 13:40 | 61.20905 | -10.65333 | 38985 ft | 509 kts | 123° |
| 2026-05-06 13:41 | 61.17045 | -10.53129 | 38989 ft | 509 kts | 123° |
| 2026-05-06 13:41 | 61.13172 | -10.40948 | 38993 ft | 509 kts | 123° |
| 2026-05-06 13:42 | 61.09297 | -10.28827 | 38991 ft | 509 kts | 124° |
| 2026-05-06 13:42 | 61.05368 | -10.16602 | 38997 ft | 510 kts | 124° |
| 2026-05-06 13:43 | 61.01329 | -10.04715 | 38992 ft | 508 kts | 132° |
| 2026-05-06 13:43 | 60.96161 | -9.95047 | 38997 ft | 505 kts | 143° |
| 2026-05-06 13:44 | 60.90607 | -9.86270 | 38987 ft | 505 kts | 144° |
| 2026-05-06 13:44 | 60.85008 | -9.77648 | 38994 ft | 504 kts | 145° |
| 2026-05-06 13:45 | 60.79406 | -9.69157 | 38982 ft | 504 kts | 145° |
| 2026-05-06 13:45 | 60.70943 | -9.56493 | 38994 ft | 503 kts | 145° |
| 2026-05-06 13:46 | 60.65303 | -9.48129 | 38981 ft | 505 kts | 145° |
| 2026-05-06 13:46 | 60.59619 | -9.39756 | 38988 ft | 504 kts | 147° |
| 2026-05-06 13:47 | 60.53800 | -9.32118 | 38979 ft | 502 kts | 150° |
| 2026-05-06 13:47 | 60.47904 | -9.24526 | 38986 ft | 502 kts | 150° |
| 2026-05-06 13:48 | 60.42018 | -9.16950 | 38978 ft | 501 kts | 150° |
| 2026-05-06 13:48 | 60.36201 | -9.09476 | 38993 ft | 500 kts | 150° |
| 2026-05-06 13:49 | 60.30321 | -9.01945 | 38988 ft | 502 kts | 149° |
| 2026-05-06 13:49 | 60.24458 | -8.94462 | 38980 ft | 501 kts | 150° |
| 2026-05-06 13:50 | 60.18599 | -8.87012 | 38987 ft | 500 kts | 150° |
| 2026-05-06 13:50 | 60.12738 | -8.79593 | 38987 ft | 502 kts | 150° |
| 2026-05-06 13:51 | 60.06860 | -8.72180 | 38993 ft | 500 kts | 150° |
| 2026-05-06 13:51 | 60.00980 | -8.64798 | 38995 ft | 499 kts | 150° |
| 2026-05-06 13:52 | 59.95139 | -8.57495 | 38991 ft | 501 kts | 150° |
| 2026-05-06 13:52 | 59.89241 | -8.50151 | 38992 ft | 501 kts | 150° |
| 2026-05-06 13:53 | 59.83355 | -8.42854 | 39013 ft | 499 kts | 150° |
| 2026-05-06 13:53 | 59.77459 | -8.35575 | 39008 ft | 503 kts | 150° |
| 2026-05-06 13:54 | 59.71584 | -8.28351 | 38993 ft | 499 kts | 151° |
| 2026-05-06 13:54 | 59.65695 | -8.21142 | 39000 ft | 502 kts | 151° |
| 2026-05-06 13:55 | 59.59770 | -8.13917 | 38998 ft | 500 kts | 152° |
| 2026-05-06 13:55 | 59.53865 | -8.06749 | 38989 ft | 501 kts | 152° |
| 2026-05-06 13:56 | 59.47982 | -7.99637 | 38988 ft | 501 kts | 152° |
| 2026-05-06 13:56 | 59.42038 | -7.92479 | 39000 ft | 502 kts | 152° |
| 2026-05-06 13:57 | 59.36120 | -7.85383 | 39013 ft | 502 kts | 152° |
| 2026-05-06 13:57 | 59.30181 | -7.78293 | 38988 ft | 502 kts | 152° |
| 2026-05-06 13:58 | 59.24250 | -7.71240 | 39002 ft | 503 kts | 152° |
| 2026-05-06 13:58 | 59.18288 | -7.64179 | 39002 ft | 503 kts | 152° |
| 2026-05-06 13:59 | 59.12345 | -7.57172 | 39007 ft | 504 kts | 152° |
| 2026-05-06 13:59 | 59.06379 | -7.50163 | 38998 ft | 503 kts | 152° |
| 2026-05-06 14:00 | 59.00426 | -7.43201 | 38996 ft | 503 kts | 152° |
| 2026-05-06 14:00 | 58.94450 | -7.36239 | 39002 ft | 504 kts | 152° |
| 2026-05-06 14:01 | 58.88456 | -7.29283 | 38998 ft | 502 kts | 153° |
| 2026-05-06 14:01 | 58.82465 | -7.22362 | 38995 ft | 503 kts | 153° |
| 2026-05-06 14:02 | 58.76498 | -7.15496 | 38992 ft | 503 kts | 153° |
| 2026-05-06 14:02 | 58.70507 | -7.08629 | 38993 ft | 502 kts | 153° |
| 2026-05-06 14:03 | 58.64521 | -7.01797 | 38993 ft | 505 kts | 153° |
| 2026-05-06 14:03 | 58.58493 | -6.94943 | 39002 ft | 505 kts | 153° |
| 2026-05-06 14:04 | 58.52485 | -6.88141 | 38993 ft | 504 kts | 153° |
| 2026-05-06 14:04 | 58.46453 | -6.81338 | 38994 ft | 505 kts | 153° |
| 2026-05-06 14:05 | 58.40458 | -6.74604 | 38992 ft | 505 kts | 153° |
| 2026-05-06 14:05 | 58.34455 | -6.67888 | 39008 ft | 503 kts | 152° |
| 2026-05-06 14:06 | 58.28415 | -6.61158 | 39003 ft | 505 kts | 152° |
| 2026-05-06 14:06 | 58.22388 | -6.54469 | 39006 ft | 504 kts | 152° |
| 2026-05-06 14:07 | 58.16351 | -6.47796 | 39000 ft | 505 kts | 152° |
| 2026-05-06 14:07 | 58.10297 | -6.41130 | 39010 ft | 504 kts | 152° |
| 2026-05-06 14:08 | 58.04298 | -6.34551 | 39003 ft | 505 kts | 153° |
| 2026-05-06 14:08 | 57.98225 | -6.27916 | 39019 ft | 502 kts | 153° |
| 2026-05-06 14:09 | 57.92204 | -6.21364 | 39014 ft | 504 kts | 153° |
| 2026-05-06 14:09 | 57.86152 | -6.14805 | 39006 ft | 503 kts | 153° |
| 2026-05-06 14:10 | 57.80148 | -6.08323 | 39018 ft | 504 kts | 153° |
| 2026-05-06 14:10 | 57.74082 | -6.01799 | 39007 ft | 503 kts | 153° |
| 2026-05-06 14:11 | 57.68030 | -5.95317 | 39013 ft | 504 kts | 153° |
| 2026-05-06 14:11 | 57.61977 | -5.88857 | 39004 ft | 503 kts | 153° |
| 2026-05-06 14:12 | 57.55885 | -5.82382 | 39001 ft | 503 kts | 153° |
| 2026-05-06 14:12 | 57.49862 | -5.76004 | 38991 ft | 501 kts | 153° |
| 2026-05-06 14:13 | 57.43813 | -5.69624 | 38985 ft | 501 kts | 153° |
| 2026-05-06 14:13 | 57.37760 | -5.63264 | 38988 ft | 502 kts | 153° |
| 2026-05-06 14:14 | 57.31697 | -5.56918 | 38990 ft | 501 kts | 153° |
| 2026-05-06 14:14 | 57.25645 | -5.50608 | 38995 ft | 501 kts | 153° |
| 2026-05-06 14:15 | 57.19602 | -5.44330 | 38993 ft | 502 kts | 153° |
| 2026-05-06 14:15 | 57.13542 | -5.38058 | 38980 ft | 500 kts | 153° |
| 2026-05-06 14:16 | 57.07493 | -5.31823 | 38974 ft | 501 kts | 154° |
| 2026-05-06 14:16 | 57.01225 | -5.26608 | 38970 ft | 498 kts | 161° |
| 2026-05-06 14:17 | 56.94814 | -5.21819 | 38969 ft | 496 kts | 161° |
| 2026-05-06 14:17 | 56.88446 | -5.17103 | 38971 ft | 496 kts | 161° |
| 2026-05-06 14:18 | 56.82057 | -5.12398 | 38969 ft | 496 kts | 161° |
| 2026-05-06 14:18 | 56.75711 | -5.07747 | 38965 ft | 496 kts | 161° |
| 2026-05-06 14:19 | 56.69307 | -5.03073 | 38963 ft | 497 kts | 161° |
| 2026-05-06 14:19 | 56.62908 | -4.98422 | 38972 ft | 497 kts | 161° |
| 2026-05-06 14:20 | 56.56513 | -4.93793 | 38988 ft | 497 kts | 161° |
| 2026-05-06 14:20 | 56.50156 | -4.89206 | 38994 ft | 495 kts | 161° |
| 2026-05-06 14:21 | 56.43751 | -4.84604 | 38998 ft | 496 kts | 161° |
| 2026-05-06 14:21 | 56.37376 | -4.80038 | 39000 ft | 495 kts | 161° |
| 2026-05-06 14:22 | 56.30988 | -4.75481 | 39000 ft | 496 kts | 161° |
| 2026-05-06 14:22 | 56.24567 | -4.70916 | 39001 ft | 495 kts | 161° |
| 2026-05-06 14:23 | 56.18214 | -4.66416 | 39006 ft | 494 kts | 161° |
| 2026-05-06 14:23 | 56.11843 | -4.61920 | 39008 ft | 495 kts | 161° |
| 2026-05-06 14:24 | 56.05431 | -4.57410 | 39008 ft | 494 kts | 161° |
| 2026-05-06 14:24 | 55.99049 | -4.52938 | 39015 ft | 495 kts | 161° |
| 2026-05-06 14:25 | 55.92689 | -4.48496 | 39021 ft | 494 kts | 161° |
| 2026-05-06 14:25 | 55.86346 | -4.43855 | 39022 ft | 496 kts | 155° |
| 2026-05-06 14:26 | 55.80322 | -4.37947 | 39026 ft | 496 kts | 152° |
| 2026-05-06 14:26 | 55.74320 | -4.31986 | 39014 ft | 495 kts | 153° |
| 2026-05-06 14:27 | 55.68319 | -4.26058 | 39004 ft | 496 kts | 153° |
| 2026-05-06 14:27 | 55.62295 | -4.20134 | 39000 ft | 495 kts | 153° |
| 2026-05-06 14:28 | 55.56274 | -4.14238 | 39000 ft | 494 kts | 153° |
| 2026-05-06 14:28 | 55.50277 | -4.08387 | 38987 ft | 494 kts | 153° |
| 2026-05-06 14:29 | 55.44277 | -4.02556 | 38988 ft | 495 kts | 153° |
| 2026-05-06 14:29 | 55.38270 | -3.96738 | 38987 ft | 494 kts | 153° |
| 2026-05-06 14:30 | 55.32255 | -3.90934 | 38990 ft | 494 kts | 153° |
| 2026-05-06 14:30 | 55.26256 | -3.85165 | 38999 ft | 494 kts | 153° |
| 2026-05-06 14:31 | 55.20235 | -3.79473 | 39010 ft | 492 kts | 155° |
| 2026-05-06 14:31 | 55.14113 | -3.74315 | 39015 ft | 491 kts | 156° |
| 2026-05-06 14:32 | 55.07976 | -3.69168 | 39017 ft | 492 kts | 156° |
| 2026-05-06 14:32 | 55.01835 | -3.64014 | 39021 ft | 492 kts | 156° |
| 2026-05-06 14:33 | 54.95683 | -3.58857 | 39024 ft | 491 kts | 156° |
| 2026-05-06 14:33 | 54.89540 | -3.53720 | 39028 ft | 491 kts | 156° |
| 2026-05-06 14:34 | 54.83387 | -3.48588 | 39026 ft | 491 kts | 156° |
| 2026-05-06 14:34 | 54.77253 | -3.43487 | 39025 ft | 490 kts | 155° |
| 2026-05-06 14:35 | 54.71103 | -3.38390 | 39024 ft | 490 kts | 155° |
| 2026-05-06 14:35 | 54.64945 | -3.33303 | 39015 ft | 490 kts | 156° |
| 2026-05-06 14:36 | 54.58819 | -3.28258 | 39009 ft | 490 kts | 156° |
| 2026-05-06 14:36 | 54.52694 | -3.23231 | 39002 ft | 490 kts | 156° |
| 2026-05-06 14:37 | 54.46531 | -3.18190 | 38998 ft | 489 kts | 156° |
| 2026-05-06 14:37 | 54.40391 | -3.13185 | 39004 ft | 490 kts | 156° |
| 2026-05-06 14:38 | 54.34267 | -3.08209 | 39010 ft | 489 kts | 156° |
| 2026-05-06 14:38 | 54.28119 | -3.03230 | 39017 ft | 490 kts | 156° |
| 2026-05-06 14:39 | 54.22013 | -2.98302 | 39024 ft | 489 kts | 156° |
| 2026-05-06 14:39 | 54.15855 | -2.93348 | 39023 ft | 488 kts | 156° |
| 2026-05-06 14:40 | 54.09698 | -2.88411 | 39025 ft | 488 kts | 156° |
| 2026-05-06 14:40 | 54.03553 | -2.83500 | 39030 ft | 488 kts | 156° |
| 2026-05-06 14:41 | 53.97265 | -2.79295 | 39034 ft | 486 kts | 164° |
| 2026-05-06 14:41 | 53.90823 | -2.75871 | 39031 ft | 486 kts | 164° |
| 2026-05-06 14:42 | 53.84408 | -2.72483 | 39030 ft | 485 kts | 164° |
| 2026-05-06 14:42 | 53.77969 | -2.69093 | 39038 ft | 485 kts | 164° |
| 2026-05-06 14:43 | 53.71544 | -2.65720 | 39029 ft | 486 kts | 164° |
| 2026-05-06 14:43 | 53.65078 | -2.62337 | 39028 ft | 485 kts | 164° |
| 2026-05-06 14:44 | 53.58675 | -2.58997 | 39034 ft | 485 kts | 164° |
| 2026-05-06 14:45 | 53.49005 | -2.53974 | 39030 ft | 484 kts | 164° |
| 2026-05-06 14:45 | 53.42604 | -2.50661 | 39033 ft | 484 kts | 164° |
| 2026-05-06 14:46 | 53.36219 | -2.47368 | 39030 ft | 484 kts | 164° |
| 2026-05-06 14:46 | 53.29797 | -2.44065 | 39034 ft | 484 kts | 164° |
| 2026-05-06 14:47 | 53.23385 | -2.40779 | 39023 ft | 483 kts | 164° |
| 2026-05-06 14:47 | 53.16940 | -2.37485 | 39029 ft | 483 kts | 164° |
| 2026-05-06 14:48 | 53.10521 | -2.34216 | 39021 ft | 483 kts | 165° |
| 2026-05-06 14:48 | 53.04141 | -2.30855 | 39007 ft | 483 kts | 160° |
| 2026-05-06 14:49 | 52.98283 | -2.25513 | 39017 ft | 486 kts | 149° |
| 2026-05-06 14:49 | 52.92593 | -2.19524 | 38338 ft | 493 kts | 149° |
| 2026-05-06 14:49 | 52.89662 | -2.16451 | 37453 ft | 508 kts | 149° |
| 2026-05-06 14:50 | 52.86662 | -2.13311 | 36509 ft | 512 kts | 149° |
| 2026-05-06 14:50 | 52.84541 | -2.11095 | 36050 ft | 507 kts | 150° |
| 2026-05-06 14:50 | 52.81583 | -2.08007 | 35685 ft | 495 kts | 150° |
| 2026-05-06 14:50 | 52.78724 | -2.05027 | 35466 ft | 482 kts | 150° |
| 2026-05-06 14:51 | 52.75926 | -2.02118 | 35047 ft | 476 kts | 150° |
| 2026-05-06 14:51 | 52.73105 | -1.99193 | 34313 ft | 477 kts | 150° |
| 2026-05-06 14:51 | 52.70306 | -1.96296 | 33278 ft | 483 kts | 150° |
| 2026-05-06 14:51 | 52.67439 | -1.93333 | 31984 ft | 493 kts | 150° |
| 2026-05-06 14:52 | 52.64548 | -1.90351 | 30865 ft | 497 kts | 150° |
| 2026-05-06 14:52 | 52.61637 | -1.87350 | 30197 ft | 491 kts | 150° |
| 2026-05-06 14:52 | 52.58768 | -1.84396 | 29714 ft | 481 kts | 150° |
| 2026-05-06 14:52 | 52.56010 | -1.81562 | 29132 ft | 475 kts | 150° |
| 2026-05-06 14:53 | 52.53210 | -1.78690 | 28425 ft | 471 kts | 150° |
| 2026-05-06 14:53 | 52.50440 | -1.75852 | 27707 ft | 467 kts | 149° |
| 2026-05-06 14:53 | 52.47699 | -1.73050 | 27012 ft | 463 kts | 149° |
| 2026-05-06 14:53 | 52.44982 | -1.70276 | 26338 ft | 458 kts | 149° |
| 2026-05-06 14:54 | 52.42290 | -1.67531 | 25665 ft | 454 kts | 149° |
| 2026-05-06 14:54 | 52.39613 | -1.64806 | 24980 ft | 450 kts | 149° |
| 2026-05-06 14:54 | 52.36982 | -1.62132 | 24304 ft | 446 kts | 149° |
| 2026-05-06 14:54 | 52.34359 | -1.59469 | 23640 ft | 441 kts | 149° |
| 2026-05-06 14:55 | 52.31782 | -1.56857 | 22989 ft | 437 kts | 149° |
| 2026-05-06 14:55 | 52.29227 | -1.54270 | 22354 ft | 433 kts | 149° |
| 2026-05-06 14:55 | 52.26688 | -1.51704 | 21728 ft | 428 kts | 149° |
| 2026-05-06 14:55 | 52.24187 | -1.49178 | 21087 ft | 425 kts | 149° |
| 2026-05-06 14:56 | 52.21723 | -1.46601 | 20423 ft | 422 kts | 144° |
| 2026-05-06 14:56 | 52.19451 | -1.43582 | 19727 ft | 419 kts | 140° |
| 2026-05-06 14:56 | 52.17268 | -1.40525 | 19153 ft | 414 kts | 139° |
| 2026-05-06 14:56 | 52.15103 | -1.37491 | 18696 ft | 412 kts | 139° |
| 2026-05-06 14:57 | 52.12913 | -1.34430 | 18269 ft | 413 kts | 140° |
| 2026-05-06 14:57 | 52.10755 | -1.31418 | 17843 ft | 411 kts | 140° |
| 2026-05-06 14:57 | 52.08610 | -1.28432 | 17432 ft | 408 kts | 140° |
| 2026-05-06 14:57 | 52.06466 | -1.25452 | 17023 ft | 406 kts | 140° |
| 2026-05-06 14:58 | 52.04316 | -1.22468 | 16594 ft | 404 kts | 140° |
| 2026-05-06 14:58 | 52.02208 | -1.19547 | 16183 ft | 400 kts | 140° |
| 2026-05-06 14:58 | 52.00088 | -1.16613 | 15788 ft | 398 kts | 140° |
| 2026-05-06 14:58 | 51.98009 | -1.13742 | 15372 ft | 396 kts | 140° |
| 2026-05-06 14:59 | 51.95923 | -1.10863 | 14992 ft | 394 kts | 140° |
| 2026-05-06 14:59 | 51.93842 | -1.07993 | 14524 ft | 388 kts | 140° |
| 2026-05-06 14:59 | 51.91822 | -1.05211 | 13979 ft | 383 kts | 140° |
| 2026-05-06 14:59 | 51.89809 | -1.02443 | 13461 ft | 378 kts | 140° |
| 2026-05-06 15:00 | 51.87825 | -0.99716 | 12977 ft | 372 kts | 140° |
| 2026-05-06 15:00 | 51.85964 | -0.96908 | 12498 ft | 367 kts | 130° |
| 2026-05-06 15:00 | 51.84522 | -0.93534 | 12008 ft | 361 kts | 118° |
| 2026-05-06 15:00 | 51.83393 | -0.89985 | 11560 ft | 356 kts | 115° |
| 2026-05-06 15:01 | 51.82307 | -0.86449 | 11074 ft | 352 kts | 115° |
| 2026-05-06 15:01 | 51.81223 | -0.82915 | 10598 ft | 348 kts | 115° |
| 2026-05-06 15:01 | 51.80169 | -0.79477 | 10140 ft | 344 kts | 115° |
| 2026-05-06 15:01 | 51.79112 | -0.76035 | 9713 ft | 339 kts | 115° |
| 2026-05-06 15:02 | 51.78080 | -0.72678 | 9591 ft | 325 kts | 115° |
| 2026-05-06 15:02 | 51.77102 | -0.69503 | 9552 ft | 309 kts | 115° |
| 2026-05-06 15:02 | 51.76176 | -0.66498 | 9546 ft | 294 kts | 115° |
| 2026-05-06 15:02 | 51.75284 | -0.63605 | 9542 ft | 279 kts | 115° |
| 2026-05-06 15:03 | 51.74438 | -0.60867 | 9520 ft | 266 kts | 115° |
| 2026-05-06 15:03 | 51.73627 | -0.58265 | 9410 ft | 259 kts | 118° |
| 2026-05-06 15:03 | 51.72448 | -0.56113 | 9126 ft | 258 kts | 146° |
| 2026-05-06 15:03 | 51.70786 | -0.55088 | 8778 ft | 258 kts | 170° |
| 2026-05-06 15:04 | 51.69032 | -0.54796 | 8538 ft | 255 kts | 177° |
| 2026-05-06 15:04 | 51.67252 | -0.54670 | 8276 ft | 254 kts | 178° |
| 2026-05-06 15:04 | 51.65493 | -0.54573 | 8041 ft | 252 kts | 178° |
| 2026-05-06 15:04 | 51.63778 | -0.54502 | 7993 ft | 251 kts | 180° |
| 2026-05-06 15:05 | 51.62012 | -0.54515 | 7986 ft | 252 kts | 180° |
| 2026-05-06 15:05 | 51.60267 | -0.54537 | 7984 ft | 253 kts | 180° |
| 2026-05-06 15:05 | 51.58516 | -0.54563 | 7986 ft | 253 kts | 182° |
| 2026-05-06 15:05 | 51.56821 | -0.55226 | 7977 ft | 250 kts | 211° |
| 2026-05-06 15:06 | 51.55574 | -0.57118 | 7974 ft | 248 kts | 241° |
| 2026-05-06 15:06 | 51.55097 | -0.59701 | 7974 ft | 244 kts | 270° |
| 2026-05-06 15:06 | 51.55164 | -0.62403 | 7987 ft | 244 kts | 275° |
| 2026-05-06 15:06 | 51.55290 | -0.65134 | 7915 ft | 246 kts | 276° |
| 2026-05-06 15:07 | 51.55419 | -0.67881 | 7556 ft | 250 kts | 276° |
| 2026-05-06 15:07 | 51.55553 | -0.70694 | 7177 ft | 254 kts | 276° |
| 2026-05-06 15:07 | 51.55684 | -0.73496 | 6791 ft | 256 kts | 276° |
| 2026-05-06 15:07 | 51.55818 | -0.76351 | 6403 ft | 254 kts | 276° |
| 2026-05-06 15:08 | 51.55946 | -0.79134 | 6020 ft | 249 kts | 276° |
| 2026-05-06 15:08 | 51.56058 | -0.81878 | 5730 ft | 241 kts | 276° |
| 2026-05-06 15:08 | 51.56157 | -0.84515 | 5482 ft | 233 kts | 276° |
| 2026-05-06 15:08 | 51.56245 | -0.87024 | 5259 ft | 221 kts | 276° |
| 2026-05-06 15:09 | 51.56153 | -0.89421 | 5020 ft | 213 kts | 252° |
| 2026-05-06 15:09 | 51.55298 | -0.91256 | 4972 ft | 204 kts | 214° |
| 2026-05-06 15:09 | 51.53965 | -0.91880 | 4969 ft | 203 kts | 175° |
| 2026-05-06 15:09 | 51.52653 | -0.91207 | 4982 ft | 201 kts | 152° |
| 2026-05-06 15:10 | 51.51404 | -0.90179 | 4824 ft | 204 kts | 150° |
| 2026-05-06 15:10 | 51.50136 | -0.89131 | 4570 ft | 204 kts | 150° |
| 2026-05-06 15:10 | 51.48875 | -0.88089 | 4317 ft | 203 kts | 150° |
| 2026-05-06 15:10 | 51.47742 | -0.86807 | 4057 ft | 198 kts | 124° |
| 2026-05-06 15:11 | 51.47159 | -0.84888 | 3793 ft | 190 kts | 94° |
| 2026-05-06 15:11 | 51.47355 | -0.82855 | 3533 ft | 183 kts | 69° |
| 2026-05-06 15:11 | 51.47585 | -0.80858 | 3292 ft | 185 kts | 82° |
| 2026-05-06 15:11 | 51.47628 | -0.78825 | 3139 ft | 182 kts | 85° |
| 2026-05-06 15:12 | 51.47633 | -0.76841 | 3013 ft | 175 kts | 85° |
| 2026-05-06 15:12 | 51.47634 | -0.74945 | 2975 ft | 165 kts | 85° |
| 2026-05-06 15:12 | 51.47639 | -0.73118 | 2973 ft | 163 kts | 85° |
| 2026-05-06 15:12 | 51.47648 | -0.71291 | 2862 ft | 167 kts | 85° |
| 2026-05-06 15:13 | 51.47657 | -0.69449 | 2651 ft | 165 kts | 85° |
| 2026-05-06 15:13 | 51.47665 | -0.67623 | 2440 ft | 164 kts | 85° |
| 2026-05-06 15:13 | 51.47675 | -0.65795 | 2227 ft | 163 kts | 85° |
| 2026-05-06 15:13 | 51.47683 | -0.64001 | 2016 ft | 162 kts | 85° |
| 2026-05-06 15:14 | 51.47692 | -0.62201 | 1802 ft | 161 kts | 84° |
| 2026-05-06 15:14 | 51.47699 | -0.60452 | 1590 ft | 158 kts | 84° |
| 2026-05-06 15:14 | 51.47709 | -0.58669 | 1368 ft | 156 kts | 84° |
| 2026-05-06 15:14 | 51.47715 | -0.56981 | 1162 ft | 149 kts | 84° |
| 2026-05-06 15:15 | 51.47723 | -0.55345 | 958 ft | 143 kts | 84° |
| 2026-05-06 15:15 | 51.47729 | -0.53807 | 786 ft | 133 kts | 84° |
| 2026-05-06 15:15 | 51.47735 | -0.52340 | 601 ft | 132 kts | 84° |
| 2026-05-06 15:15 | 51.47736 | -0.50882 | 384 ft | 126 kts | 85° |
| 2026-05-06 15:16 | 51.47747 | -0.49464 | 224 ft | 128 kts | 85° |
| 2026-05-06 15:16 | 51.47750 | -0.48028 | 95 ft | 128 kts | 85° |
| 2026-05-06 15:16 | 51.47763 | -0.46801 | 92 ft | 92 kts | 87° |
| 2026-05-06 15:16 | 51.47770 | -0.45919 | 87 ft | 70 kts | 90° |
| 2026-05-06 15:17 | 51.47765 | -0.45194 | 96 ft | 59 kts | 90° |
| 2026-05-06 15:17 | 51.47762 | -0.44705 | 97 ft | 35 kts | 98° |
| 2026-05-06 15:17 | 51.47705 | -0.44406 | 97 ft | 22 kts | 114° |
| 2026-05-06 15:17 | 51.47677 | -0.44307 | 97 ft | 1 kts | 114° |
| 2026-05-06 15:18 | 51.47664 | -0.44268 | 96 ft | 4 kts | 127° |
| 2026-05-06 15:18 | 51.47646 | -0.44249 | 95 ft | 4 kts | 156° |
| 2026-05-06 15:18 | 51.47615 | -0.44227 | 95 ft | 4 kts | 150° |
| 2026-05-06 15:18 | 51.47595 | -0.44169 | 94 ft | 5 kts | 93° |
| 2026-05-06 15:19 | 51.47595 | -0.44164 | 94 ft | 0 kts | 93° |
| 2026-05-06 15:20 | 51.47595 | -0.44163 | 94 ft | 0 kts | 93° |
| 2026-05-06 15:20 | 51.47593 | -0.44120 | 93 ft | 5 kts | 99° |
| 2026-05-06 15:20 | 51.47565 | -0.44074 | 92 ft | 7 kts | 157° |
| 2026-05-06 15:20 | 51.47517 | -0.44028 | 91 ft | 9 kts | 124° |
| 2026-05-06 15:21 | 51.47507 | -0.43933 | 88 ft | 6 kts | 89° |
| 2026-05-06 15:21 | 51.47507 | -0.43915 | 87 ft | 0 kts | 89° |
| 2026-05-06 15:21 | 51.47507 | -0.43913 | 87 ft | 1 kts | 89° |
| 2026-05-06 15:21 | 51.47506 | -0.43852 | 85 ft | 9 kts | 96° |
| 2026-05-06 15:22 | 51.47469 | -0.43767 | 83 ft | 11 kts | 160° |
| 2026-05-06 15:22 | 51.47380 | -0.43754 | 82 ft | 13 kts | 178° |
| 2026-05-06 15:22 | 51.47284 | -0.43754 | 82 ft | 13 kts | 179° |
| 2026-05-06 15:22 | 51.47185 | -0.43753 | 82 ft | 14 kts | 179° |
| 2026-05-06 15:23 | 51.47078 | -0.43753 | 84 ft | 16 kts | 179° |
| 2026-05-06 15:23 | 51.46965 | -0.43752 | 86 ft | 16 kts | 179° |
| 2026-05-06 15:23 | 51.46864 | -0.43751 | 86 ft | 12 kts | 182° |
| 2026-05-06 15:23 | 51.46790 | -0.43799 | 87 ft | 10 kts | 226° |
| 2026-05-06 15:24 | 51.46772 | -0.43909 | 89 ft | 8 kts | 267° |
| 2026-05-06 15:24 | 51.46770 | -0.43999 | 91 ft | 6 kts | 273° |
| 2026-05-06 15:24 | 51.46793 | -0.44044 | 92 ft | 5 kts | 339° |
| 2026-05-06 15:24 | 51.46838 | -0.44055 | 93 ft | 6 kts | 354° |
| 2026-05-06 15:25 | 51.46873 | -0.44028 | 92 ft | 7 kts | 65° |
| 2026-05-06 15:25 | 51.46879 | -0.43947 | 89 ft | 5 kts | 89° |
| 2026-05-06 15:25 | 51.46879 | -0.43921 | 89 ft | 0 kts | 89° |
| 2026-05-06 15:25 | 51.46879 | -0.43913 | 89 ft | 0 kts | 89° |